createdAt,value
2022-10-30T09:19:53.698Z,66.745003
2022-10-30T09:21:04.804Z,66.725998
2022-10-30T09:22:13.235Z,66.732002
2022-10-30T09:23:22.774Z,66.732002
2022-10-30T09:24:31.399Z,66.696999
2022-10-30T09:25:42.086Z,66.696999
2022-10-30T09:26:50.728Z,66.696999
2022-10-30T09:27:59.402Z,66.695999
2022-10-30T09:29:09.133Z,66.668999
2022-10-30T09:30:17.868Z,66.610001
2022-10-30T09:31:27.617Z,66.615997
2022-10-30T09:32:37.372Z,66.598999
2022-10-30T09:33:45.983Z,66.593002
2022-10-30T09:34:55.748Z,66.598
2022-10-30T09:36:05.295Z,66.654999
2022-10-30T09:37:13.198Z,66.654999
2022-10-30T09:38:23.319Z,66.638
2022-10-30T09:39:32.929Z,66.675003
2022-10-30T09:40:43.083Z,66.681
2022-10-30T09:41:52.010Z,66.644997
2022-10-30T09:43:01.585Z,66.592003
2022-10-30T09:44:11.193Z,66.629997
2022-10-30T09:45:34.212Z,66.527
2022-10-30T09:46:29.573Z,66.497002
2022-10-30T09:47:38.218Z,66.382004
2022-10-30T09:48:46.790Z,66.490997
2022-10-30T09:49:57.602Z,66.472
2022-10-30T09:51:06.193Z,66.404999
2022-10-30T09:52:14.819Z,66.356003
2022-10-30T09:53:23.463Z,66.300003
2022-10-30T09:54:31.983Z,66.278
2022-10-30T09:55:41.599Z,66.209
2022-10-30T09:56:50.215Z,66.163002
2022-10-30T09:58:00.998Z,66.100998
2022-10-30T09:59:10.668Z,66.024002
2022-10-30T10:00:20.965Z,65.948997
2022-10-30T10:01:29.700Z,65.889999
2022-10-30T10:02:38.282Z,65.780998
2022-10-30T10:03:47.994Z,65.724998
2022-10-30T10:04:57.724Z,65.653999
2022-10-30T10:06:06.703Z,65.685997
2022-10-30T10:07:16.305Z,65.552002
2022-10-30T10:08:25.974Z,65.438004
2022-10-30T10:09:34.567Z,65.323997
2022-10-30T10:10:43.922Z,65.254997
2022-10-30T10:11:52.639Z,65.095001
2022-10-30T10:13:02.343Z,65.019997
2022-10-30T10:14:11.897Z,64.994003
2022-10-30T10:15:20.558Z,64.967003
2022-10-30T10:16:28.174Z,64.786003
2022-10-30T10:17:36.744Z,64.670998
2022-10-30T10:18:46.408Z,64.526001
2022-10-30T10:19:54.995Z,64.412003
2022-10-30T10:21:05.810Z,64.253998
2022-10-30T10:22:16.227Z,64.230003
2022-10-30T10:23:25.884Z,64.152
2022-10-30T10:24:34.493Z,64.084
2022-10-30T10:25:42.096Z,64.018997
2022-10-30T10:26:51.789Z,63.945
2022-10-30T10:28:00.819Z,63.957001
2022-10-30T10:29:09.826Z,63.957001
2022-10-30T10:30:18.089Z,63.82
2022-10-30T10:31:26.700Z,63.773998
2022-10-30T10:32:36.571Z,63.716
2022-10-30T10:33:44.105Z,63.674
2022-10-30T10:34:52.705Z,63.653999
2022-10-30T10:36:02.318Z,63.631001
2022-10-30T10:37:10.913Z,63.618
2022-10-30T10:38:19.536Z,63.618
2022-10-30T10:39:29.160Z,63.578999
2022-10-30T10:40:37.840Z,63.535999
2022-10-30T10:41:51.068Z,63.472
2022-10-30T10:42:58.189Z,63.423
2022-10-30T10:44:06.802Z,63.417
2022-10-30T10:45:16.537Z,63.389999
2022-10-30T10:46:26.245Z,63.375
2022-10-30T10:47:35.007Z,63.375
2022-10-30T10:48:44.596Z,63.294998
2022-10-30T10:49:53.142Z,63.261002
2022-10-30T10:51:02.730Z,63.271
2022-10-30T10:52:12.927Z,63.251999
2022-10-30T10:53:20.807Z,63.223999
2022-10-30T10:54:31.058Z,63.185001
2022-10-30T10:55:40.571Z,63.196999
2022-10-30T10:56:50.265Z,63.202999
2022-10-30T10:57:58.868Z,63.138
2022-10-30T10:59:08.489Z,63.063999
2022-10-30T11:00:18.092Z,63.073002
2022-10-30T11:01:27.784Z,62.994999
2022-10-30T11:02:35.439Z,62.933998
2022-10-30T11:03:45.002Z,62.855999
2022-10-30T11:04:53.920Z,62.908001
2022-10-30T11:06:03.359Z,62.939999
2022-10-30T11:07:13.092Z,62.959999
2022-10-30T11:08:21.713Z,62.986
2022-10-30T11:09:31.683Z,63.007
2022-10-30T11:10:40.311Z,62.938999
2022-10-30T11:11:47.883Z,62.891998
2022-10-30T11:12:57.797Z,62.945999
2022-10-30T11:14:06.171Z,62.891998
2022-10-30T11:15:14.791Z,62.883999
2022-10-30T11:16:23.444Z,62.828999
2022-10-30T11:17:33.009Z,62.816002
2022-10-30T11:18:42.593Z,62.801998
2022-10-30T11:19:50.944Z,62.860001
2022-10-30T11:20:57.979Z,62.860001
2022-10-30T11:22:07.564Z,62.896999
2022-10-30T11:23:16.205Z,62.839001
2022-10-30T11:24:25.972Z,62.806999
2022-10-30T11:25:34.508Z,62.782001
2022-10-30T11:26:44.529Z,62.741001
2022-10-30T11:27:54.369Z,62.618999
2022-10-30T11:29:02.962Z,62.584
2022-10-30T11:30:10.631Z,62.466
2022-10-30T11:31:20.267Z,62.471001
2022-10-30T11:32:29.052Z,62.471001
2022-10-30T11:33:37.980Z,62.381001
2022-10-30T11:34:46.574Z,62.372002
2022-10-30T11:35:55.233Z,62.397999
2022-10-30T11:37:04.852Z,62.59
2022-10-30T11:38:14.680Z,62.563999
2022-10-30T11:39:24.409Z,62.573002
2022-10-30T11:40:33.095Z,62.528
2022-10-30T11:41:41.734Z,62.181999
2022-10-30T11:42:51.492Z,62.153
2022-10-30T11:44:01.208Z,62.021999
2022-10-30T11:45:10.903Z,62.000999
2022-10-30T11:46:20.556Z,61.966999
2022-10-30T11:47:29.254Z,61.966999
2022-10-30T11:48:38.819Z,62.000999
2022-10-30T11:49:47.497Z,61.914001
2022-10-30T11:50:56.191Z,61.914001
2022-10-30T11:52:05.891Z,61.880001
2022-10-30T11:53:14.476Z,61.828999
2022-10-30T11:54:23.053Z,61.847
2022-10-30T11:55:31.655Z,61.870998
2022-10-30T11:56:40.485Z,61.804001
2022-10-30T11:57:50.605Z,61.811001
2022-10-30T11:58:59.263Z,61.803001
2022-10-30T12:00:07.942Z,61.73
2022-10-30T12:01:18.543Z,61.867001
2022-10-30T12:02:27.463Z,61.997002
2022-10-30T12:03:36.810Z,62.009998
2022-10-30T12:04:46.515Z,61.938999
2022-10-30T12:05:55.107Z,61.859001
2022-10-30T12:07:04.966Z,61.584999
2022-10-30T12:08:13.719Z,61.598
2022-10-30T12:09:21.330Z,61.560001
2022-10-30T12:10:30.996Z,61.457001
2022-10-30T12:11:39.624Z,61.32
2022-10-30T12:12:49.235Z,61.358002
2022-10-30T12:13:57.940Z,61.352001
2022-10-30T12:15:07.565Z,61.313
2022-10-30T12:16:17.198Z,61.308998
2022-10-30T12:17:25.762Z,61.388
2022-10-30T12:18:33.416Z,61.388
2022-10-30T12:19:43.240Z,61.348999
2022-10-30T12:20:51.825Z,61.381001
2022-10-30T12:22:00.443Z,61.287998
2022-10-30T12:23:11.029Z,61.293999
2022-10-30T12:24:19.634Z,61.228001
2022-10-30T12:25:29.479Z,61.269001
2022-10-30T12:26:38.149Z,61.201
2022-10-30T12:27:45.726Z,61.227001
2022-10-30T12:28:55.371Z,61.238998
2022-10-30T12:30:08.706Z,61.220001
2022-10-30T12:31:14.627Z,61.188
2022-10-30T12:32:24.168Z,61.283001
2022-10-30T12:33:32.747Z,61.355999
2022-10-30T12:34:42.822Z,61.355999
2022-10-30T12:35:50.484Z,61.367001
2022-10-30T12:37:00.340Z,61.488998
2022-10-30T12:38:10.051Z,61.494999
2022-10-30T12:39:18.648Z,61.522999
2022-10-30T12:40:27.357Z,61.539001
2022-10-30T12:41:36.034Z,61.554001
2022-10-30T12:42:44.670Z,61.561001
2022-10-30T12:43:54.336Z,61.532001
2022-10-30T12:45:02.899Z,61.576
2022-10-30T12:46:10.492Z,61.598
2022-10-30T12:47:20.143Z,61.57
2022-10-30T12:48:28.766Z,61.563
2022-10-30T12:49:37.720Z,61.576
2022-10-30T12:50:46.656Z,61.529999
2022-10-30T12:51:55.255Z,61.542999
2022-10-30T12:53:04.945Z,61.412998
2022-10-30T12:54:12.573Z,61.372002
2022-10-30T12:55:20.269Z,61.32
2022-10-30T12:56:29.857Z,61.298
2022-10-30T12:57:38.499Z,61.188999
2022-10-30T12:58:48.096Z,61.169998
2022-10-30T12:59:56.684Z,61.240002
2022-10-30T13:01:05.446Z,61.148998
2022-10-30T13:02:15.132Z,61.068001
2022-10-30T13:03:22.695Z,61.127998
2022-10-30T13:04:31.265Z,61.109001
2022-10-30T13:05:40.911Z,61.134998
2022-10-30T13:06:49.411Z,61.226002
2022-10-30T13:07:57.382Z,61.233002
2022-10-30T13:09:06.751Z,61.179001
2022-10-30T13:10:15.372Z,61.103001
2022-10-30T13:11:24.872Z,61.054001
2022-10-30T13:12:32.440Z,60.990002
2022-10-30T13:13:40.024Z,60.93
2022-10-30T13:14:49.584Z,60.962002
2022-10-30T13:15:59.194Z,60.891998
2022-10-30T13:17:07.785Z,60.874001
2022-10-30T13:18:15.354Z,60.75
2022-10-30T13:19:25.207Z,60.693001
2022-10-30T13:20:35.783Z,60.724998
2022-10-30T13:21:45.107Z,60.835999
2022-10-30T13:22:52.652Z,60.855
2022-10-30T13:24:02.233Z,60.917
2022-10-30T13:25:11.858Z,60.832001
2022-10-30T13:26:20.431Z,60.879002
2022-10-30T13:27:28.992Z,61.028
2022-10-30T13:28:37.578Z,61.223
2022-10-30T13:29:47.158Z,61.265999
2022-10-30T13:30:55.707Z,61.265999
2022-10-30T13:32:04.370Z,61.264999
